sensor_id;sensor_type;location;lat;lon;timestamp;P1;durP1;ratioP1;P2;durP2;ratioP2
16577;SDS011;8401;52.528;13.340;2023-04-24T00:01:23;4.40;;;4.00;;
16577;SDS011;8401;52.528;13.340;2023-04-24T00:03:49;4.97;;;3.50;;
16577;SDS011;8401;52.528;13.340;2023-04-24T00:06:15;4.63;;;3.87;;
16577;SDS011;8401;52.528;13.340;2023-04-24T00:08:42;3.90;;;3.50;;
16577;SDS011;8401;52.528;13.340;2023-04-24T00:11:08;4.37;;;3.87;;
16577;SDS011;8401;52.528;13.340;2023-04-24T00:13:34;5.23;;;4.03;;
16577;SDS011;8401;52.528;13.340;2023-04-24T00:16:00;4.47;;;3.77;;
16577;SDS011;8401;52.528;13.340;2023-04-24T00:18:26;4.23;;;3.80;;
16577;SDS011;8401;52.528;13.340;2023-04-24T00:20:51;4.97;;;4.03;;
16577;SDS011;8401;52.528;13.340;2023-04-24T00:23:17;5.77;;;4.10;;
16577;SDS011;8401;52.528;13.340;2023-04-24T00:25:42;4.83;;;3.77;;
16577;SDS011;8401;52.528;13.340;2023-04-24T00:28:08;4.93;;;3.87;;
16577;SDS011;8401;52.528;13.340;2023-04-24T00:30:34;5.53;;;4.10;;
16577;SDS011;8401;52.528;13.340;2023-04-24T00:32:59;4.53;;;4.13;;
16577;SDS011;8401;52.528;13.340;2023-04-24T00:35:25;4.60;;;4.10;;
16577;SDS011;8401;52.528;13.340;2023-04-24T00:37:51;5.23;;;4.30;;
16577;SDS011;8401;52.528;13.340;2023-04-24T00:40:17;4.97;;;4.37;;
16577;SDS011;8401;52.528;13.340;2023-04-24T00:42:43;5.93;;;4.33;;
16577;SDS011;8401;52.528;13.340;2023-04-24T00:45:09;5.37;;;4.27;;
16577;SDS011;8401;52.528;13.340;2023-04-24T00:47:35;4.27;;;3.87;;
16577;SDS011;8401;52.528;13.340;2023-04-24T00:50:02;5.60;;;4.57;;
16577;SDS011;8401;52.528;13.340;2023-04-24T00:52:28;4.90;;;4.20;;
16577;SDS011;8401;52.528;13.340;2023-04-24T00:54:56;5.83;;;4.80;;
16577;SDS011;8401;52.528;13.340;2023-04-24T00:57:21;5.40;;;4.73;;
16577;SDS011;8401;52.528;13.340;2023-04-24T00:59:48;4.33;;;3.93;;
16577;SDS011;8401;52.528;13.340;2023-04-24T01:02:14;4.87;;;4.37;;
16577;SDS011;8401;52.528;13.340;2023-04-24T01:04:40;4.73;;;4.20;;
16577;SDS011;8401;52.528;13.340;2023-04-24T01:07:06;5.33;;;4.30;;
16577;SDS011;8401;52.528;13.340;2023-04-24T01:09:36;5.00;;;4.50;;
16577;SDS011;8401;52.528;13.340;2023-04-24T01:12:03;4.80;;;4.30;;
16577;SDS011;8401;52.528;13.340;2023-04-24T01:14:28;4.80;;;4.30;;
16577;SDS011;8401;52.528;13.340;2023-04-24T01:16:55;8.13;;;4.70;;
16577;SDS011;8401;52.528;13.340;2023-04-24T01:19:22;5.07;;;4.57;;
16577;SDS011;8401;52.528;13.340;2023-04-24T01:21:48;5.50;;;4.43;;
16577;SDS011;8401;52.528;13.340;2023-04-24T01:24:18;5.63;;;4.27;;
16577;SDS011;8401;52.528;13.340;2023-04-24T01:26:44;5.03;;;4.40;;
16577;SDS011;8401;52.528;13.340;2023-04-24T01:29:11;5.17;;;4.67;;
16577;SDS011;8401;52.528;13.340;2023-04-24T01:31:37;5.03;;;4.60;;
16577;SDS011;8401;52.528;13.340;2023-04-24T01:34:04;8.70;;;4.80;;
16577;SDS011;8401;52.528;13.340;2023-04-24T01:36:30;9.30;;;4.27;;
16577;SDS011;8401;52.528;13.340;2023-04-24T01:38:58;4.57;;;4.07;;
16577;SDS011;8401;52.528;13.340;2023-04-24T01:41:23;6.57;;;4.37;;
16577;SDS011;8401;52.528;13.340;2023-04-24T01:43:50;5.63;;;4.97;;
16577;SDS011;8401;52.528;13.340;2023-04-24T01:46:16;5.93;;;4.73;;
16577;SDS011;8401;52.528;13.340;2023-04-24T01:48:41;6.40;;;4.57;;
16577;SDS011;8401;52.528;13.340;2023-04-24T01:51:07;4.80;;;4.33;;
16577;SDS011;8401;52.528;13.340;2023-04-24T01:53:33;4.73;;;4.20;;
16577;SDS011;8401;52.528;13.340;2023-04-24T01:55:59;5.60;;;4.50;;
16577;SDS011;8401;52.528;13.340;2023-04-24T01:58:24;5.10;;;4.60;;
16577;SDS011;8401;52.528;13.340;2023-04-24T02:00:51;5.27;;;4.53;;
16577;SDS011;8401;52.528;13.340;2023-04-24T02:03:16;5.17;;;4.67;;
16577;SDS011;8401;52.528;13.340;2023-04-24T02:05:45;5.87;;;5.00;;
16577;SDS011;8401;52.528;13.340;2023-04-24T02:08:11;5.00;;;4.40;;
16577;SDS011;8401;52.528;13.340;2023-04-24T02:10:37;5.57;;;4.80;;
16577;SDS011;8401;52.528;13.340;2023-04-24T02:13:02;5.33;;;4.83;;
16577;SDS011;8401;52.528;13.340;2023-04-24T02:15:29;5.60;;;5.00;;
16577;SDS011;8401;52.528;13.340;2023-04-24T02:17:55;6.00;;;5.00;;
16577;SDS011;8401;52.528;13.340;2023-04-24T02:20:20;5.20;;;4.57;;
16577;SDS011;8401;52.528;13.340;2023-04-24T02:22:46;5.10;;;4.60;;
16577;SDS011;8401;52.528;13.340;2023-04-24T02:25:12;6.30;;;5.30;;
16577;SDS011;8401;52.528;13.340;2023-04-24T02:27:37;6.23;;;5.13;;
16577;SDS011;8401;52.528;13.340;2023-04-24T02:30:03;5.93;;;5.33;;
16577;SDS011;8401;52.528;13.340;2023-04-24T02:32:29;6.07;;;5.43;;
16577;SDS011;8401;52.528;13.340;2023-04-24T02:34:55;5.57;;;4.47;;
16577;SDS011;8401;52.528;13.340;2023-04-24T02:37:21;5.93;;;5.33;;
16577;SDS011;8401;52.528;13.340;2023-04-24T02:39:47;5.73;;;5.13;;
16577;SDS011;8401;52.528;13.340;2023-04-24T02:42:12;5.60;;;5.10;;
16577;SDS011;8401;52.528;13.340;2023-04-24T02:44:38;5.50;;;4.63;;
16577;SDS011;8401;52.528;13.340;2023-04-24T02:47:03;5.87;;;5.17;;
16577;SDS011;8401;52.528;13.340;2023-04-24T02:49:29;5.97;;;5.03;;
16577;SDS011;8401;52.528;13.340;2023-04-24T02:51:55;5.37;;;4.87;;
16577;SDS011;8401;52.528;13.340;2023-04-24T02:54:21;5.27;;;4.77;;
16577;SDS011;8401;52.528;13.340;2023-04-24T02:56:46;6.90;;;4.90;;
16577;SDS011;8401;52.528;13.340;2023-04-24T02:59:12;5.83;;;5.23;;
16577;SDS011;8401;52.528;13.340;2023-04-24T03:01:37;6.13;;;5.50;;
16577;SDS011;8401;52.528;13.340;2023-04-24T03:04:03;5.27;;;4.77;;
16577;SDS011;8401;52.528;13.340;2023-04-24T03:06:29;5.50;;;5.00;;
16577;SDS011;8401;52.528;13.340;2023-04-24T03:08:56;5.80;;;4.90;;
16577;SDS011;8401;52.528;13.340;2023-04-24T03:11:21;6.33;;;5.20;;
16577;SDS011;8401;52.528;13.340;2023-04-24T03:13:47;6.27;;;5.50;;
16577;SDS011;8401;52.528;13.340;2023-04-24T03:16:13;6.57;;;5.33;;
16577;SDS011;8401;52.528;13.340;2023-04-24T03:18:38;5.70;;;5.10;;
16577;SDS011;8401;52.528;13.340;2023-04-24T03:21:04;6.73;;;5.10;;
16577;SDS011;8401;52.528;13.340;2023-04-24T03:23:30;6.40;;;5.47;;
16577;SDS011;8401;52.528;13.340;2023-04-24T03:25:56;7.20;;;5.87;;
16577;SDS011;8401;52.528;13.340;2023-04-24T03:28:21;6.93;;;6.07;;
16577;SDS011;8401;52.528;13.340;2023-04-24T03:30:47;6.30;;;5.23;;
16577;SDS011;8401;52.528;13.340;2023-04-24T03:33:13;6.07;;;5.47;;
16577;SDS011;8401;52.528;13.340;2023-04-24T03:35:38;5.70;;;5.10;;
16577;SDS011;8401;52.528;13.340;2023-04-24T03:38:04;5.60;;;5.07;;
16577;SDS011;8401;52.528;13.340;2023-04-24T03:40:29;5.53;;;4.90;;
16577;SDS011;8401;52.528;13.340;2023-04-24T03:42:55;5.33;;;4.83;;
16577;SDS011;8401;52.528;13.340;2023-04-24T03:45:21;5.57;;;5.00;;
16577;SDS011;8401;52.528;13.340;2023-04-24T03:47:46;6.27;;;5.57;;
16577;SDS011;8401;52.528;13.340;2023-04-24T03:50:12;5.60;;;5.00;;
16577;SDS011;8401;52.528;13.340;2023-04-24T03:52:38;5.53;;;4.77;;
16577;SDS011;8401;52.528;13.340;2023-04-24T03:55:04;5.43;;;4.93;;
16577;SDS011;8401;52.528;13.340;2023-04-24T03:57:31;5.40;;;4.90;;
16577;SDS011;8401;52.528;13.340;2023-04-24T03:59:56;6.90;;;5.60;;
16577;SDS011;8401;52.528;13.340;2023-04-24T04:02:22;6.87;;;4.80;;
16577;SDS011;8401;52.528;13.340;2023-04-24T04:04:48;5.80;;;4.57;;
16577;SDS011;8401;52.528;13.340;2023-04-24T04:07:13;5.63;;;4.20;;
16577;SDS011;8401;52.528;13.340;2023-04-24T04:09:39;5.50;;;4.70;;
16577;SDS011;8401;52.528;13.340;2023-04-24T04:12:05;5.17;;;4.53;;
16577;SDS011;8401;52.528;13.340;2023-04-24T04:14:34;5.83;;;5.00;;
16577;SDS011;8401;52.528;13.340;2023-04-24T04:17:00;8.23;;;5.80;;
16577;SDS011;8401;52.528;13.340;2023-04-24T04:19:25;6.70;;;4.60;;
16577;SDS011;8401;52.528;13.340;2023-04-24T04:21:51;7.13;;;4.70;;
16577;SDS011;8401;52.528;13.340;2023-04-24T04:24:18;4.63;;;4.13;;
16577;SDS011;8401;52.528;13.340;2023-04-24T04:26:46;5.13;;;4.63;;
16577;SDS011;8401;52.528;13.340;2023-04-24T04:29:12;5.57;;;4.67;;
16577;SDS011;8401;52.528;13.340;2023-04-24T04:31:38;5.17;;;4.40;;
16577;SDS011;8401;52.528;13.340;2023-04-24T04:34:04;7.03;;;4.87;;
16577;SDS011;8401;52.528;13.340;2023-04-24T04:36:30;4.53;;;4.13;;
16577;SDS011;8401;52.528;13.340;2023-04-24T04:38:56;5.00;;;4.50;;
16577;SDS011;8401;52.528;13.340;2023-04-24T04:41:24;5.17;;;4.33;;
16577;SDS011;8401;52.528;13.340;2023-04-24T04:43:50;4.97;;;4.27;;
16577;SDS011;8401;52.528;13.340;2023-04-24T04:46:15;5.00;;;4.30;;
16577;SDS011;8401;52.528;13.340;2023-04-24T04:48:41;4.83;;;4.27;;
16577;SDS011;8401;52.528;13.340;2023-04-24T04:51:07;4.30;;;3.83;;
16577;SDS011;8401;52.528;13.340;2023-04-24T04:53:32;5.17;;;4.07;;
16577;SDS011;8401;52.528;13.340;2023-04-24T04:55:58;4.93;;;4.40;;
16577;SDS011;8401;52.528;13.340;2023-04-24T04:58:24;5.40;;;4.50;;
16577;SDS011;8401;52.528;13.340;2023-04-24T05:00:50;5.83;;;4.30;;
16577;SDS011;8401;52.528;13.340;2023-04-24T05:03:16;4.77;;;4.07;;
16577;SDS011;8401;52.528;13.340;2023-04-24T05:05:41;4.50;;;4.10;;
16577;SDS011;8401;52.528;13.340;2023-04-24T05:08:07;4.50;;;4.10;;
16577;SDS011;8401;52.528;13.340;2023-04-24T05:10:33;4.33;;;3.93;;
16577;SDS011;8401;52.528;13.340;2023-04-24T05:12:59;4.40;;;4.00;;
16577;SDS011;8401;52.528;13.340;2023-04-24T05:15:25;4.10;;;3.70;;
16577;SDS011;8401;52.528;13.340;2023-04-24T05:17:51;5.83;;;4.03;;
16577;SDS011;8401;52.528;13.340;2023-04-24T05:20:17;5.33;;;4.10;;
16577;SDS011;8401;52.528;13.340;2023-04-24T05:22:42;4.67;;;3.87;;
16577;SDS011;8401;52.528;13.340;2023-04-24T05:25:08;5.53;;;3.90;;
16577;SDS011;8401;52.528;13.340;2023-04-24T05:27:34;4.07;;;3.67;;
16577;SDS011;8401;52.528;13.340;2023-04-24T05:29:59;4.53;;;3.53;;
16577;SDS011;8401;52.528;13.340;2023-04-24T05:32:25;4.10;;;3.67;;
16577;SDS011;8401;52.528;13.340;2023-04-24T05:34:52;5.30;;;3.70;;
16577;SDS011;8401;52.528;13.340;2023-04-24T05:37:17;4.27;;;3.60;;
16577;SDS011;8401;52.528;13.340;2023-04-24T05:39:43;3.77;;;2.70;;
16577;SDS011;8401;52.528;13.340;2023-04-24T05:42:08;3.77;;;2.93;;
16577;SDS011;8401;52.528;13.340;2023-04-24T05:44:34;3.40;;;3.07;;
16577;SDS011;8401;52.528;13.340;2023-04-24T05:47:00;3.73;;;2.80;;
16577;SDS011;8401;52.528;13.340;2023-04-24T05:49:26;3.10;;;2.80;;
16577;SDS011;8401;52.528;13.340;2023-04-24T05:51:52;5.97;;;3.23;;
16577;SDS011;8401;52.528;13.340;2023-04-24T05:54:18;3.20;;;2.90;;
16577;SDS011;8401;52.528;13.340;2023-04-24T05:56:43;4.93;;;2.83;;
16577;SDS011;8401;52.528;13.340;2023-04-24T05:59:09;3.53;;;3.17;;
16577;SDS011;8401;52.528;13.340;2023-04-24T06:01:35;2.57;;;2.27;;
16577;SDS011;8401;52.528;13.340;2023-04-24T06:04:01;3.57;;;2.73;;
16577;SDS011;8401;52.528;13.340;2023-04-24T06:06:27;4.00;;;2.80;;
16577;SDS011;8401;52.528;13.340;2023-04-24T06:08:53;4.07;;;2.50;;
16577;SDS011;8401;52.528;13.340;2023-04-24T06:11:19;2.47;;;2.27;;
16577;SDS011;8401;52.528;13.340;2023-04-24T06:13:45;4.80;;;2.40;;
16577;SDS011;8401;52.528;13.340;2023-04-24T06:16:11;2.43;;;2.23;;
16577;SDS011;8401;52.528;13.340;2023-04-24T06:18:36;2.87;;;2.20;;
16577;SDS011;8401;52.528;13.340;2023-04-24T06:21:02;2.50;;;2.10;;
16577;SDS011;8401;52.528;13.340;2023-04-24T06:23:28;5.20;;;2.67;;
16577;SDS011;8401;52.528;13.340;2023-04-24T06:25:54;3.03;;;2.17;;
16577;SDS011;8401;52.528;13.340;2023-04-24T06:28:20;2.97;;;1.70;;
16577;SDS011;8401;52.528;13.340;2023-04-24T06:30:45;2.47;;;2.00;;
16577;SDS011;8401;52.528;13.340;2023-04-24T06:33:11;3.80;;;2.03;;
16577;SDS011;8401;52.528;13.340;2023-04-24T06:35:37;3.63;;;1.90;;
16577;SDS011;8401;52.528;13.340;2023-04-24T06:38:05;5.87;;;2.40;;
16577;SDS011;8401;52.528;13.340;2023-04-24T06:40:31;2.40;;;1.43;;
16577;SDS011;8401;52.528;13.340;2023-04-24T06:42:57;5.60;;;1.60;;
16577;SDS011;8401;52.528;13.340;2023-04-24T06:45:25;4.50;;;1.57;;
16577;SDS011;8401;52.528;13.340;2023-04-24T06:47:50;3.20;;;1.40;;
16577;SDS011;8401;52.528;13.340;2023-04-24T06:50:16;5.40;;;1.70;;
16577;SDS011;8401;52.528;13.340;2023-04-24T06:52:42;6.03;;;1.57;;
16577;SDS011;8401;52.528;13.340;2023-04-24T06:55:09;5.03;;;1.80;;
16577;SDS011;8401;52.528;13.340;2023-04-24T06:57:36;3.10;;;1.63;;
16577;SDS011;8401;52.528;13.340;2023-04-24T07:00:02;4.37;;;2.03;;
16577;SDS011;8401;52.528;13.340;2023-04-24T07:02:30;4.80;;;1.50;;
16577;SDS011;8401;52.528;13.340;2023-04-24T07:04:55;2.47;;;1.50;;
16577;SDS011;8401;52.528;13.340;2023-04-24T07:07:21;3.23;;;0.97;;
16577;SDS011;8401;52.528;13.340;2023-04-24T07:09:48;1.67;;;1.03;;
16577;SDS011;8401;52.528;13.340;2023-04-24T07:12:15;1.47;;;0.90;;
16577;SDS011;8401;52.528;13.340;2023-04-24T07:14:42;0.90;;;0.80;;
16577;SDS011;8401;52.528;13.340;2023-04-24T07:17:07;1.53;;;1.20;;
16577;SDS011;8401;52.528;13.340;2023-04-24T07:19:33;1.13;;;1.03;;
16577;SDS011;8401;52.528;13.340;2023-04-24T07:22:00;1.90;;;1.40;;
16577;SDS011;8401;52.528;13.340;2023-04-24T07:24:26;1.00;;;0.80;;
16577;SDS011;8401;52.528;13.340;2023-04-24T07:26:52;2.93;;;1.10;;
16577;SDS011;8401;52.528;13.340;2023-04-24T07:29:18;1.13;;;0.90;;
16577;SDS011;8401;52.528;13.340;2023-04-24T07:31:44;1.13;;;0.80;;
16577;SDS011;8401;52.528;13.340;2023-04-24T07:34:10;2.63;;;0.80;;
16577;SDS011;8401;52.528;13.340;2023-04-24T07:36:36;0.80;;;0.80;;
16577;SDS011;8401;52.528;13.340;2023-04-24T07:39:03;2.17;;;0.70;;
16577;SDS011;8401;52.528;13.340;2023-04-24T07:41:29;1.57;;;0.90;;
16577;SDS011;8401;52.528;13.340;2023-04-24T07:43:55;1.27;;;0.80;;
16577;SDS011;8401;52.528;13.340;2023-04-24T07:46:26;2.70;;;0.80;;
16577;SDS011;8401;52.528;13.340;2023-04-24T07:48:54;3.20;;;1.00;;
16577;SDS011;8401;52.528;13.340;2023-04-24T07:51:20;3.10;;;1.00;;
16577;SDS011;8401;52.528;13.340;2023-04-24T07:53:46;6.70;;;1.23;;
16577;SDS011;8401;52.528;13.340;2023-04-24T07:56:12;4.00;;;1.00;;
16577;SDS011;8401;52.528;13.340;2023-04-24T07:58:38;1.93;;;0.77;;
16577;SDS011;8401;52.528;13.340;2023-04-24T08:01:03;0.50;;;0.50;;
16577;SDS011;8401;52.528;13.340;2023-04-24T08:03:29;1.02;;;0.60;;
16577;SDS011;8401;52.528;13.340;2023-04-24T08:05:55;1.93;;;0.77;;
16577;SDS011;8401;52.528;13.340;2023-04-24T08:08:21;1.10;;;0.70;;
16577;SDS011;8401;52.528;13.340;2023-04-24T08:10:47;1.25;;;1.00;;
16577;SDS011;8401;52.528;13.340;2023-04-24T08:13:13;0.90;;;0.70;;
16577;SDS011;8401;52.528;13.340;2023-04-24T08:15:39;0.60;;;0.60;;
16577;SDS011;8401;52.528;13.340;2023-04-24T08:18:04;0.65;;;0.57;;
16577;SDS011;8401;52.528;13.340;2023-04-24T08:20:30;1.40;;;0.50;;
16577;SDS011;8401;52.528;13.340;2023-04-24T08:22:56;0.73;;;0.70;;
16577;SDS011;8401;52.528;13.340;2023-04-24T08:25:21;2.15;;;0.90;;
16577;SDS011;8401;52.528;13.340;2023-04-24T08:27:49;1.70;;;1.08;;
16577;SDS011;8401;52.528;13.340;2023-04-24T08:30:15;2.35;;;0.80;;
16577;SDS011;8401;52.528;13.340;2023-04-24T08:32:41;2.70;;;1.40;;
16577;SDS011;8401;52.528;13.340;2023-04-24T08:35:07;1.20;;;0.80;;
16577;SDS011;8401;52.528;13.340;2023-04-24T08:37:36;1.05;;;0.90;;
16577;SDS011;8401;52.528;13.340;2023-04-24T08:40:03;1.75;;;0.70;;
16577;SDS011;8401;52.528;13.340;2023-04-24T08:42:44;1.27;;;0.75;;
16577;SDS011;8401;52.528;13.340;2023-04-24T08:45:10;0.60;;;0.60;;
16577;SDS011;8401;52.528;13.340;2023-04-24T08:47:40;0.98;;;0.65;;
16577;SDS011;8401;52.528;13.340;2023-04-24T08:50:07;1.60;;;0.90;;
16577;SDS011;8401;52.528;13.340;2023-04-24T08:52:33;1.50;;;0.68;;
16577;SDS011;8401;52.528;13.340;2023-04-24T08:55:00;1.35;;;1.13;;
16577;SDS011;8401;52.528;13.340;2023-04-24T08:57:26;2.53;;;0.80;;
16577;SDS011;8401;52.528;13.340;2023-04-24T08:59:53;0.90;;;0.70;;
16577;SDS011;8401;52.528;13.340;2023-04-24T09:02:22;2.05;;;0.80;;
16577;SDS011;8401;52.528;13.340;2023-04-24T09:04:48;2.25;;;1.85;;
16577;SDS011;8401;52.528;13.340;2023-04-24T09:07:16;0.47;;;0.40;;
16577;SDS011;8401;52.528;13.340;2023-04-24T09:09:43;4.57;;;0.70;;
16577;SDS011;8401;52.528;13.340;2023-04-24T09:12:09;1.00;;;0.77;;
16577;SDS011;8401;52.528;13.340;2023-04-24T09:14:35;1.38;;;0.82;;
16577;SDS011;8401;52.528;13.340;2023-04-24T09:17:04;1.60;;;0.80;;
16577;SDS011;8401;52.528;13.340;2023-04-24T09:19:31;2.83;;;1.15;;
16577;SDS011;8401;52.528;13.340;2023-04-24T09:21:57;1.52;;;0.80;;
16577;SDS011;8401;52.528;13.340;2023-04-24T09:24:22;1.40;;;0.73;;
16577;SDS011;8401;52.528;13.340;2023-04-24T09:26:49;1.67;;;1.00;;
16577;SDS011;8401;52.528;13.340;2023-04-24T09:29:22;1.70;;;0.90;;
16577;SDS011;8401;52.528;13.340;2023-04-24T09:31:48;1.43;;;0.67;;
16577;SDS011;8401;52.528;13.340;2023-04-24T09:34:13;3.03;;;0.85;;
16577;SDS011;8401;52.528;13.340;2023-04-24T09:36:40;1.65;;;0.90;;
16577;SDS011;8401;52.528;13.340;2023-04-24T09:39:11;1.98;;;0.90;;
16577;SDS011;8401;52.528;13.340;2023-04-24T09:41:53;1.25;;;0.80;;
16577;SDS011;8401;52.528;13.340;2023-04-24T09:44:23;1.38;;;0.80;;
16577;SDS011;8401;52.528;13.340;2023-04-24T09:46:51;1.25;;;0.75;;
16577;SDS011;8401;52.528;13.340;2023-04-24T09:49:22;1.67;;;1.05;;
16577;SDS011;8401;52.528;13.340;2023-04-24T09:51:52;4.45;;;1.80;;
16577;SDS011;8401;52.528;13.340;2023-04-24T09:54:35;3.50;;;1.20;;
16577;SDS011;8401;52.528;13.340;2023-04-24T09:57:04;4.80;;;1.67;;
16577;SDS011;8401;52.528;13.340;2023-04-24T09:59:32;4.55;;;1.48;;
16577;SDS011;8401;52.528;13.340;2023-04-24T10:01:58;2.40;;;1.02;;
16577;SDS011;8401;52.528;13.340;2023-04-24T10:04:28;4.78;;;1.30;;
16577;SDS011;8401;52.528;13.340;2023-04-24T10:06:57;2.03;;;1.20;;
16577;SDS011;8401;52.528;13.340;2023-04-24T10:09:23;1.75;;;1.10;;
16577;SDS011;8401;52.528;13.340;2023-04-24T10:11:50;1.50;;;1.00;;
16577;SDS011;8401;52.528;13.340;2023-04-24T10:14:19;2.70;;;1.10;;
16577;SDS011;8401;52.528;13.340;2023-04-24T10:16:49;10.75;;;1.88;;
16577;SDS011;8401;52.528;13.340;2023-04-24T10:19:18;4.85;;;1.30;;
16577;SDS011;8401;52.528;13.340;2023-04-24T10:21:43;4.38;;;1.20;;
16577;SDS011;8401;52.528;13.340;2023-04-24T10:24:16;4.18;;;1.00;;
16577;SDS011;8401;52.528;13.340;2023-04-24T10:26:43;2.72;;;1.25;;
16577;SDS011;8401;52.528;13.340;2023-04-24T10:29:11;4.20;;;1.65;;
16577;SDS011;8401;52.528;13.340;2023-04-24T10:31:37;3.33;;;1.20;;
16577;SDS011;8401;52.528;13.340;2023-04-24T10:34:04;9.02;;;2.05;;
16577;SDS011;8401;52.528;13.340;2023-04-24T10:36:32;2.28;;;0.90;;
16577;SDS011;8401;52.528;13.340;2023-04-24T10:39:01;1.88;;;1.48;;
16577;SDS011;8401;52.528;13.340;2023-04-24T10:41:29;1.90;;;0.90;;
16577;SDS011;8401;52.528;13.340;2023-04-24T10:44:09;0.98;;;0.65;;
16577;SDS011;8401;52.528;13.340;2023-04-24T10:46:36;2.90;;;0.77;;
16577;SDS011;8401;52.528;13.340;2023-04-24T10:49:06;1.40;;;0.85;;
16577;SDS011;8401;52.528;13.340;2023-04-24T10:51:49;0.80;;;0.75;;
16577;SDS011;8401;52.528;13.340;2023-04-24T10:54:24;2.67;;;0.95;;
16577;SDS011;8401;52.528;13.340;2023-04-24T10:59:49;2.67;;;0.70;;
16577;SDS011;8401;52.528;13.340;2023-04-24T11:02:18;2.35;;;1.02;;
16577;SDS011;8401;52.528;13.340;2023-04-24T11:05:03;2.55;;;1.00;;
16577;SDS011;8401;52.528;13.340;2023-04-24T11:07:29;1.92;;;0.65;;
16577;SDS011;8401;52.528;13.340;2023-04-24T11:09:58;3.75;;;1.08;;
16577;SDS011;8401;52.528;13.340;2023-04-24T11:12:26;1.70;;;0.80;;
16577;SDS011;8401;52.528;13.340;2023-04-24T11:17:38;1.63;;;0.98;;
16577;SDS011;8401;52.528;13.340;2023-04-24T11:20:08;1.65;;;0.93;;
16577;SDS011;8401;52.528;13.340;2023-04-24T11:22:36;0.70;;;0.70;;
16577;SDS011;8401;52.528;13.340;2023-04-24T11:25:05;2.10;;;0.77;;
16577;SDS011;8401;52.528;13.340;2023-04-24T11:28:02;1.13;;;0.70;;
16577;SDS011;8401;52.528;13.340;2023-04-24T11:30:29;0.88;;;0.88;;
16577;SDS011;8401;52.528;13.340;2023-04-24T11:32:56;1.95;;;0.90;;
16577;SDS011;8401;52.528;13.340;2023-04-24T11:35:46;2.40;;;0.98;;
16577;SDS011;8401;52.528;13.340;2023-04-24T11:38:12;2.47;;;1.45;;
16577;SDS011;8401;52.528;13.340;2023-04-24T11:40:39;3.97;;;2.05;;
16577;SDS011;8401;52.528;13.340;2023-04-24T11:43:06;4.37;;;2.10;;
16577;SDS011;8401;52.528;13.340;2023-04-24T11:45:33;2.73;;;1.13;;
16577;SDS011;8401;52.528;13.340;2023-04-24T11:47:59;4.63;;;1.70;;
16577;SDS011;8401;52.528;13.340;2023-04-24T11:50:25;3.40;;;1.47;;
16577;SDS011;8401;52.528;13.340;2023-04-24T11:52:52;4.33;;;1.67;;
16577;SDS011;8401;52.528;13.340;2023-04-24T11:57:45;2.47;;;1.20;;
16577;SDS011;8401;52.528;13.340;2023-04-24T12:00:44;1.37;;;1.13;;
16577;SDS011;8401;52.528;13.340;2023-04-24T12:03:07;2.53;;;1.37;;
16577;SDS011;8401;52.528;13.340;2023-04-24T12:05:34;2.20;;;1.43;;
16577;SDS011;8401;52.528;13.340;2023-04-24T12:08:00;3.00;;;1.10;;
16577;SDS011;8401;52.528;13.340;2023-04-24T12:10:26;3.77;;;0.93;;
16577;SDS011;8401;52.528;13.340;2023-04-24T12:12:54;1.20;;;1.10;;
16577;SDS011;8401;52.528;13.340;2023-04-24T12:15:21;2.27;;;0.90;;
16577;SDS011;8401;52.528;13.340;2023-04-24T12:17:47;3.37;;;1.10;;
16577;SDS011;8401;52.528;13.340;2023-04-24T12:20:15;3.07;;;1.50;;
16577;SDS011;8401;52.528;13.340;2023-04-24T12:25:19;4.28;;;1.40;;
16577;SDS011;8401;52.528;13.340;2023-04-24T12:27:51;3.75;;;1.67;;
16577;SDS011;8401;52.528;13.340;2023-04-24T12:30:18;1.48;;;0.77;;
16577;SDS011;8401;52.528;13.340;2023-04-24T12:32:45;1.27;;;1.00;;
16577;SDS011;8401;52.528;13.340;2023-04-24T12:35:12;6.82;;;1.50;;
16577;SDS011;8401;52.528;13.340;2023-04-24T12:37:38;3.03;;;1.13;;
16577;SDS011;8401;52.528;13.340;2023-04-24T12:40:08;4.70;;;0.93;;
16577;SDS011;8401;52.528;13.340;2023-04-24T12:42:41;4.25;;;1.20;;
16577;SDS011;8401;52.528;13.340;2023-04-24T12:45:08;2.47;;;0.80;;
16577;SDS011;8401;52.528;13.340;2023-04-24T12:47:34;0.90;;;0.70;;
16577;SDS011;8401;52.528;13.340;2023-04-24T12:50:01;1.23;;;0.57;;
16577;SDS011;8401;52.528;13.340;2023-04-24T12:52:27;0.80;;;0.60;;
16577;SDS011;8401;52.528;13.340;2023-04-24T12:54:55;1.10;;;0.52;;
16577;SDS011;8401;52.528;13.340;2023-04-24T12:57:22;2.42;;;0.85;;
16577;SDS011;8401;52.528;13.340;2023-04-24T12:59:49;0.87;;;0.70;;
16577;SDS011;8401;52.528;13.340;2023-04-24T13:02:15;2.23;;;0.70;;
16577;SDS011;8401;52.528;13.340;2023-04-24T13:04:44;0.90;;;0.60;;
16577;SDS011;8401;52.528;13.340;2023-04-24T13:07:12;3.60;;;0.97;;
16577;SDS011;8401;52.528;13.340;2023-04-24T13:09:40;1.73;;;0.80;;
16577;SDS011;8401;52.528;13.340;2023-04-24T13:12:07;2.40;;;1.20;;
16577;SDS011;8401;52.528;13.340;2023-04-24T13:14:33;1.67;;;1.10;;
16577;SDS011;8401;52.528;13.340;2023-04-24T13:16:58;1.60;;;0.90;;
16577;SDS011;8401;52.528;13.340;2023-04-24T13:19:25;2.53;;;1.50;;
16577;SDS011;8401;52.528;13.340;2023-04-24T13:21:51;1.13;;;0.90;;
16577;SDS011;8401;52.528;13.340;2023-04-24T13:24:17;3.22;;;1.52;;
16577;SDS011;8401;52.528;13.340;2023-04-24T13:26:43;4.80;;;1.13;;
16577;SDS011;8401;52.528;13.340;2023-04-24T13:29:09;2.70;;;0.98;;
16577;SDS011;8401;52.528;13.340;2023-04-24T13:31:35;4.13;;;1.10;;
16577;SDS011;8401;52.528;13.340;2023-04-24T13:34:01;1.70;;;0.80;;
16577;SDS011;8401;52.528;13.340;2023-04-24T13:36:28;4.13;;;1.13;;
16577;SDS011;8401;52.528;13.340;2023-04-24T13:38:53;1.20;;;0.80;;
16577;SDS011;8401;52.528;13.340;2023-04-24T13:41:19;2.10;;;0.97;;
16577;SDS011;8401;52.528;13.340;2023-04-24T13:43:45;2.90;;;0.83;;
16577;SDS011;8401;52.528;13.340;2023-04-24T13:46:10;1.43;;;0.97;;
16577;SDS011;8401;52.528;13.340;2023-04-24T13:48:36;1.90;;;1.00;;
16577;SDS011;8401;52.528;13.340;2023-04-24T13:51:02;1.50;;;0.85;;
16577;SDS011;8401;52.528;13.340;2023-04-24T13:53:27;1.20;;;0.68;;
16577;SDS011;8401;52.528;13.340;2023-04-24T13:55:53;0.75;;;0.65;;
16577;SDS011;8401;52.528;13.340;2023-04-24T13:58:19;2.17;;;1.30;;
16577;SDS011;8401;52.528;13.340;2023-04-24T14:00:44;1.63;;;0.90;;
16577;SDS011;8401;52.528;13.340;2023-04-24T14:03:10;1.20;;;1.00;;
16577;SDS011;8401;52.528;13.340;2023-04-24T14:05:36;1.57;;;1.00;;
16577;SDS011;8401;52.528;13.340;2023-04-24T14:08:01;1.10;;;0.90;;
16577;SDS011;8401;52.528;13.340;2023-04-24T14:10:27;1.47;;;1.17;;
16577;SDS011;8401;52.528;13.340;2023-04-24T14:12:53;1.73;;;0.95;;
16577;SDS011;8401;52.528;13.340;2023-04-24T14:15:19;4.90;;;1.45;;
16577;SDS011;8401;52.528;13.340;2023-04-24T14:17:44;7.43;;;2.03;;
16577;SDS011;8401;52.528;13.340;2023-04-24T14:20:11;2.72;;;1.40;;
16577;SDS011;8401;52.528;13.340;2023-04-24T14:22:39;2.17;;;0.90;;
16577;SDS011;8401;52.528;13.340;2023-04-24T14:25:05;2.60;;;0.90;;
16577;SDS011;8401;52.528;13.340;2023-04-24T14:27:32;1.50;;;0.67;;
16577;SDS011;8401;52.528;13.340;2023-04-24T14:29:59;1.13;;;0.80;;
16577;SDS011;8401;52.528;13.340;2023-04-24T14:32:25;3.90;;;1.17;;
16577;SDS011;8401;52.528;13.340;2023-04-24T14:34:50;5.70;;;1.37;;
16577;SDS011;8401;52.528;13.340;2023-04-24T14:37:16;1.87;;;1.20;;
16577;SDS011;8401;52.528;13.340;2023-04-24T14:39:42;1.57;;;1.30;;
16577;SDS011;8401;52.528;13.340;2023-04-24T14:42:07;0.77;;;0.77;;
16577;SDS011;8401;52.528;13.340;2023-04-24T14:44:33;0.82;;;0.80;;
16577;SDS011;8401;52.528;13.340;2023-04-24T14:46:59;2.63;;;0.90;;
16577;SDS011;8401;52.528;13.340;2023-04-24T14:49:25;3.57;;;0.80;;
16577;SDS011;8401;52.528;13.340;2023-04-24T14:51:51;2.70;;;1.00;;
16577;SDS011;8401;52.528;13.340;2023-04-24T14:54:16;1.40;;;1.00;;
16577;SDS011;8401;52.528;13.340;2023-04-24T14:56:42;1.77;;;1.10;;